PRINT OUT SECTION, show ยป

TAF EPBY 211130Z 2112/2212 VRB02KT CAVOK
TEMPO 2112/2118 16010KT
PROB40 TEMPO 2121/2202 -SHRA BKN035CB
PROB30 TEMPO 2123/2201 VRB20G30KT 3000 TSRA SCT010 BKN025CB
BECMG 2202/2205 19010KT BKN020
TEMPO 2205/2212 19020G30KT 6000 SHRA BKN020CB=

TAF EPGD 211130Z 2112/2212 VRB05KT CAVOK
BECMG 2112/2114 08010KT
TEMPO 2200/2212 4000 SHRA SCT007 BKN020CB
PROB40 TEMPO 2201/2206 VRB18G30KT 1500 TSRA BKN007 BKN015CB
BECMG 2204/2206 17010KT
PROB40 TEMPO 2209/2212 VRB18G30KT 1500 TSRA BKN015CB=

TAF EPKK 211430Z 2115/2215 07004KT CAVOK
TEMPO 2120/2203 BKN030CB
PROB30 TEMPO 2120/2203 VRB25G45KT 2500 TSRA
BECMG 2207/2209 25010KT
TEMPO 2207/2211 VRB25G40KT 2500 TSRA BKN030CB
PROB40 TEMPO 2207/2211 1200 +TSRAGR=

TAF EPKT 211130Z 2112/2212 23004KT CAVOK
TEMPO 2120/2203 VRB25G45KT 2500 TSRA BKN030CB
PROB40 TEMPO 2120/2124 1200 +TSRAGR
BECMG 2206/2209 29010KT
TEMPO 2206/2210 VRB25G40KT 2500 TSRA BKN030CB
PROB40 TEMPO 2206/2210 1200 +TSRA=

TAF EPLB 211130Z 2112/2212 VRB04KT CAVOK
BECMG 2120/2122 10010KT
PROB30 TEMPO 2200/2207 VRB20G30KT 2500 TSRA BKN055CB
BECMG 2205/2207 16010KT
TEMPO 2207/2212 VRB20G30KT 2500 TSRA BKN055CB
PROB40 TEMPO 2209/2212 VRB30G50KT 0800 +TSRAGR BKN055CB=

TAF EPLL 211130Z 2112/2212 VRB04KT CAVOK
BECMG 2116/2119 10010KT
PROB40 TEMPO 2120/2211 VRB20G40KT 2000 +TSRA BKN060CB
BECMG 2203/2206 16010KT
BECMG 2206/2209 27010KT=

TAF EPMO 211130Z 2112/2212 VRB04KT CAVOK
BECMG 2117/2120 09010KT
PROB30 TEMPO 2201/2207 VRB20G30KT 2500 TSRA BKN060CB
BECMG 2203/2206 15010KT
PROB30 TEMPO 2209/2212 VRB25G40KT 2000 +TSRA BKN050CB=

TAF EPPO 211130Z 2112/2212 13008KT CAVOK
TEMPO 2119/2202 VRB20G35KT 4000 TSRA BKN040CB
PROB40 TEMPO 2120/2124 VRB25G45KT 1200 +TSRAGR BKN020CB
BECMG 2203/2206 25012KT
TEMPO 2208/2212 26015G25KT SHRA BKN025CB
PROB30 TEMPO 2209/2212 VRB20G35KT 3000 TSRA BKN012 BKN020CB=

TAF EPRZ 211130Z 2112/2212 11004KT CAVOK
BECMG 2205/2208 20010KT
BECMG 2208/2211 29010KT
TEMPO 2208/2212 VRB25G40KT 2500 TSRA BKN030CB
PROB40 TEMPO 2208/2212 VRB30G50KT 1200 +TSRAGR=

TAF AMD EPSC 211604Z 2116/2212 07010KT CAVOK
TEMPO 2116/2206 SHRA BKN030CB
PROB40 TEMPO 2116/2206 VRB16G28KT 1500 TSRA SCT014 BKN020CB
BECMG 2121/2124 18005KT
PROB30 TEMPO 2201/2206 BKN005
BECMG 2203/2206 26012KT BKN014 BKN020
PROB40 TEMPO 2206/2212 27018G38KT SHRA BKN015CB=

TAF EPWA 211430Z 2115/2215 VRB04KT CAVOK
BECMG 2116/2119 09010KT
PROB30 TEMPO 2201/2209 VRB20G30KT 2500 TSRA BKN060CB
BECMG 2203/2206 15010KT
PROB30 TEMPO 2209/2213 VRB25G40KT 2000 +TSRA BKN050CB
BECMG 2211/2213 27012KT
TEMPO 2213/2215 27016G26KT SCT040TCU=

TAF EPWR 211430Z 2115/2215 13008KT CAVOK
TEMPO 2117/2201 VRB20G40KT 4000 TSRA BKN040CB
PROB40 TEMPO 2118/2124 VRB25G55KT 1200 +TSRAGR BKN020CB
TEMPO 2201/2208 -SHRA BKN025CB
BECMG 2203/2206 25010KT
TEMPO 2208/2213 27015G25KT SHRA BKN025CB
PROB30 TEMPO 2209/2212 VRB18G35KT 3000 TSRA=